Time;durP1;ratioP1;P1;durP2;ratioP2;P2;SDS_P1;SDS_P2;PMS_P1;PMS_P2;Temp;Humidity;BMP_temperature;BMP_pressure;BME280_temperature;BME280_humidity;BME280_pressure;Samples;Min_cycle;Max_cycle;Signal;HPM_P1;HPM_P2
2021/08/22 00:01:20;;;;;;;7.00;6.40;;;;;;;25.61;40.41;94669.35;827456;71;32814;-74
2021/08/22 00:16:21;;;;;;;6.70;6.10;;;;;;;25.45;40.51;94668.37;828156;71;32661;-77
2021/08/22 00:31:24;;;;;;;6.53;6.03;;;;;;;25.26;40.69;94696.29;828242;71;29696;-75
2021/08/22 00:46:55;;;;;;;7.47;6.77;;;;;;;24.46;41.88;94704.37;827626;71;33232;-76
2021/08/22 01:01:22;;;;;;;7.20;6.50;;;;;;;24.34;42.14;94706.00;828400;71;29695;-75
2021/08/22 01:16:21;;;;;;;7.57;6.83;;;;;;;24.66;41.70;94687.49;828358;71;29772;-75
2021/08/22 01:31:23;;;;;;;7.00;6.50;;;;;;;24.99;41.19;94695.17;828929;71;30478;-74
2021/08/22 01:46:16;;;;;;;6.97;6.40;;;;;;;24.64;41.08;94691.70;834012;71;30361;-77
2021/08/22 02:01:14;;;;;;;8.30;7.40;;;;;;;23.65;45.95;94699.19;828326;71;30147;-76
2021/08/22 02:16:17;;;;;;;6.33;5.93;;;;;;;24.51;42.71;94693.34;828311;71;31934;-75
2021/08/22 02:31:24;;;;;;;7.90;7.20;;;;;;;24.67;42.14;94690.36;828269;71;30192;-75
2021/08/22 02:46:21;;;;;;;7.30;6.70;;;;;;;24.78;41.92;94698.50;829946;71;29753;-75
2021/08/22 03:16:15;;;;;;;6.47;5.90;;;;;;;24.65;41.83;94696.67;827537;71;32711;-73
2021/08/22 03:31:12;;;;;;;7.10;6.50;;;;;;;24.64;41.78;94699.17;829700;71;31985;-77
2021/08/22 03:46:09;;;;;;;6.33;5.83;;;;;;;24.71;41.68;94701.89;828066;71;30342;-75
2021/08/22 04:01:16;;;;;;;6.27;5.77;;;;;;;24.90;41.22;94711.63;827133;71;33238;-76
2021/08/22 04:16:12;;;;;;;7.13;6.47;;;;;;;25.21;40.81;94723.50;828226;71;31871;-75
2021/08/22 04:31:19;;;;;;;7.03;6.43;;;;;;;24.75;41.40;94734.89;829081;71;32442;-75
2021/08/22 04:32:23;;;;;;;7.90;7.27;;;;;;;24.70;41.51;94738.52;808620;73;26562;-73
2021/08/22 04:46:13;;;;;;;6.87;6.30;;;;;;;25.19;40.77;94739.98;828284;71;29780;-75
2021/08/22 05:01:26;;;;;;;8.30;6.40;;;;;;;25.63;40.31;94752.52;828548;71;29690;-75
2021/08/22 05:16:08;;;;;;;7.00;6.50;;;;;;;26.46;39.57;94760.80;828295;71;30192;-76
2021/08/22 05:31:27;;;;;;;6.90;6.30;;;;;;;27.12;37.84;94758.49;827624;71;32698;-77
2021/08/22 05:46:19;;;;;;;6.73;6.03;;;;;;;26.88;39.09;94761.98;828396;71;29846;-75
2021/08/22 06:01:23;;;;;;;7.17;6.57;;;;;;;26.85;39.05;94767.58;827905;71;32722;-76
2021/08/22 06:16:24;;;;;;;7.77;7.07;;;;;;;26.45;39.05;94766.76;827458;71;32747;-75
2021/08/22 06:31:19;;;;;;;6.30;5.80;;;;;;;26.09;38.25;94760.55;835239;71;32640;-75
2021/08/22 06:46:19;;;;;;;6.87;6.37;;;;;;;26.08;39.92;94762.47;833808;71;32687;-76
2021/08/22 07:01:30;;;;;;;7.00;6.40;;;;;;;26.75;39.15;94765.66;827777;71;32741;-77
2021/08/22 07:16:21;;;;;;;7.23;6.63;;;;;;;27.05;37.82;94770.64;828857;71;30269;-73
2021/08/22 07:31:19;;;;;;;7.37;6.67;;;;;;;27.31;37.02;94768.12;828317;71;29683;-75
2021/08/22 07:46:37;;;;;;;8.10;7.50;;;;;;;25.18;36.42;94361.86;826923;71;33186;-74
2021/08/22 08:01:15;;;;;;;9.80;9.10;;;;;;;28.38;35.28;94758.78;828403;71;30792;-75
2021/08/22 08:02:20;;;;;;;9.53;8.73;;;;;;;28.25;35.55;94732.09;808723;72;27377;-77
2021/08/22 08:16:13;;;;;;;8.93;8.13;;;;;;;28.64;34.80;94755.36;833853;71;30575;-74
2021/08/22 08:31:35;;;;;;;10.97;10.07;;;;;;;29.00;34.80;94745.61;827360;71;32725;-74
2021/08/22 08:46:59;;;;;;;10.83;9.93;;;;;;;29.51;33.94;94733.72;826188;71;32866;-74
2021/08/22 09:16:56;;;;;;;9.47;8.70;;;;;;;29.03;33.75;94719.71;820660;71;32686;-74
2021/08/22 09:31:52;;;;;;;8.63;7.93;;;;;;;30.05;31.21;94708.69;827266;71;32704;-76
2021/08/22 09:46:58;;;;;;;8.20;7.60;;;;;;;30.51;30.07;94700.49;821465;71;33332;-78
2021/08/22 10:01:45;;;;;;;8.40;7.80;;;;;;;30.63;29.69;94694.48;822523;70;32870;-78
2021/08/22 10:16:19;;;;;;;9.10;8.40;;;;;;;31.27;29.35;94686.42;834042;71;33224;-79
2021/08/22 10:31:51;;;;;;;8.77;8.07;;;;;;;31.84;27.59;94681.80;819956;71;33280;-79
2021/08/22 10:46:09;;;;;;;9.60;8.80;;;;;;;32.02;26.98;94661.08;821030;71;30457;-78
2021/08/22 11:01:36;;;;;;;11.40;10.47;;;;;;;31.40;25.39;94662.90;793331;74;32864;-81
2021/08/22 11:16:49;;;;;;;10.57;9.77;;;;;;;31.97;26.60;94644.65;827835;71;33172;-78
2021/08/22 11:31:22;;;;;;;10.10;9.30;;;;;;;32.00;24.83;94634.95;828117;71;32359;-79
2021/08/22 11:46:22;;;;;;;10.10;9.30;;;;;;;31.45;26.65;94617.69;830075;71;31382;-78
2021/08/22 12:01:22;;;;;;;10.20;9.20;;;;;;;32.49;25.79;94609.87;827685;71;32729;-77
2021/08/22 12:16:35;;;;;;;10.97;10.17;;;;;;;33.48;24.88;94593.26;827904;71;32714;-79
2021/08/22 12:31:12;;;;;;;10.63;9.83;;;;;;;33.97;23.69;94581.30;828558;71;30738;-78
2021/08/22 12:46:29;;;;;;;10.20;9.50;;;;;;;33.15;24.43;94575.72;828719;71;29852;-80
2021/08/22 13:01:27;;;;;;;9.30;8.70;;;;;;;32.01;25.38;94569.34;827928;71;32872;-76
2021/08/22 13:16:18;;;;;;;11.13;10.03;;;;;;;31.92;25.20;94556.94;828337;71;29557;-75
2021/08/22 13:31:31;;;;;;;9.60;9.00;;;;;;;31.09;27.33;94558.73;834003;71;29507;-75
2021/08/22 13:46:19;;;;;;;10.60;9.80;;;;;;;30.44;26.64;94547.00;833984;71;32737;-76
2021/08/22 14:01:17;;;;;;;9.80;8.90;;;;;;;30.31;27.37;94542.01;833800;71;32694;-73
2021/08/22 14:16:09;;;;;;;9.73;9.00;;;;;;;30.55;27.12;94525.12;828373;71;29515;-75
2021/08/22 14:31:35;;;;;;;9.70;8.70;;;;;;;30.71;27.27;94523.09;834088;71;33179;-78
2021/08/22 14:46:22;;;;;;;9.67;8.97;;;;;;;30.58;27.78;94522.17;828586;71;30222;-76
2021/08/22 15:16:09;;;;;;;9.10;8.30;;;;;;;30.07;25.70;94501.42;834076;71;30223;-74
2021/08/22 15:31:10;;;;;;;9.10;8.30;;;;;;;29.97;26.83;94506.42;828177;71;29430;-75
2021/08/22 15:46:15;;;;;;;9.43;8.57;;;;;;;29.78;27.84;94501.12;827200;71;32742;-75
2021/08/22 16:01:17;;;;;;;8.07;7.47;;;;;;;29.21;29.43;94496.56;833848;71;33162;-77
2021/08/22 16:16:08;;;;;;;8.70;8.10;;;;;;;28.86;30.01;94495.25;828188;71;29669;-75
2021/08/22 16:31:16;;;;;;;8.00;7.30;;;;;;;28.49;30.48;94495.48;809853;70;32989;-75
2021/08/22 16:46:11;;;;;;;7.80;7.20;;;;;;;28.21;30.99;94528.17;827645;71;31075;-75
2021/08/22 17:01:15;;;;;;;7.80;7.10;;;;;;;;;;827518;71;33180;-75
2021/08/22 17:16:26;;;;;;;8.10;7.50;;;;;;;;;;820159;71;32738;-74
2021/08/22 17:31:24;;;;;;;7.90;7.30;;;;;;;;;;835009;71;33295;-77
2021/08/22 17:46:28;;;;;;;9.10;8.37;;;;;;;26.77;34.00;94558.70;833822;71;33171;-77
2021/08/22 18:01:16;;;;;;;8.30;7.60;;;;;;;26.31;34.97;94575.12;829613;71;30165;-76
2021/08/22 18:16:12;;;;;;;9.10;8.30;;;;;;;26.23;35.92;94581.66;822021;71;29770;-78
2021/08/22 18:31:10;;;;;;;9.10;8.40;;;;;;;26.45;36.36;94595.09;820266;71;29853;-76
2021/08/22 18:46:31;;;;;;;10.00;9.20;;;;;;;26.04;35.94;94604.94;825632;71;33360;-76
2021/08/22 19:01:27;;;;;;;12.93;10.87;;;;;;;25.55;36.40;94617.91;833958;71;32694;-75
2021/08/22 19:16:30;;;;;;;9.60;8.80;;;;;;;25.66;37.69;94623.30;827360;71;32808;-77
2021/08/22 19:31:39;;;;;;;8.77;8.07;;;;;;;26.24;37.22;94622.78;827298;71;32648;-77
2021/08/22 19:46:21;;;;;;;9.80;9.00;;;;;;;26.27;37.44;94621.44;833908;71;32737;-75
2021/08/22 20:01:18;;;;;;;8.90;8.20;;;;;;;26.33;37.31;94621.24;829678;71;31442;-76
2021/08/22 20:16:11;;;;;;;10.97;8.97;;;;;;;26.41;38.32;94625.28;828311;71;29749;-76
2021/08/22 20:31:10;;;;;;;9.10;8.30;;;;;;;26.41;37.97;94613.17;833959;71;30228;-75
2021/08/22 20:46:27;;;;;;;8.07;7.27;;;;;;;26.32;37.45;94622.41;834108;71;32219;-78
2021/08/22 21:16:14;;;;;;;8.90;8.20;;;;;;;26.27;38.18;94641.62;827152;71;32727;-78
2021/08/22 21:31:19;;;;;;;9.07;8.37;;;;;;;26.13;38.36;94659.11;833675;71;33234;-73
2021/08/22 21:46:15;;;;;;;10.07;9.07;;;;;;;26.12;38.40;94664.31;827413;71;33175;-77
2021/08/22 22:01:09;;;;;;;9.90;9.00;;;;;;;25.82;38.27;94659.24;827946;71;30227;-76
2021/08/22 22:16:19;;;;;;;10.20;9.23;;;;;;;24.03;41.40;94656.30;828393;71;29795;-76
2021/08/22 22:31:17;;;;;;;10.50;9.70;;;;;;;23.43;43.17;94631.78;828232;71;30280;-77
2021/08/22 22:32:21;;;;;;;10.30;9.50;;;;;;;23.31;43.58;94647.52;808540;73;26511;-76
2021/08/22 22:46:21;;;;;;;10.60;9.50;;;;;;;22.58;45.99;94640.45;823642;71;33224;-76
2021/08/22 23:01:35;;;;;;;11.85;10.08;;;;;;;22.25;48.02;94629.66;833967;71;32715;-77
2021/08/22 23:16:20;;;;;;;10.70;9.70;;;;;;;21.95;49.69;94629.72;833873;71;32968;-74
2021/08/22 23:31:18;;;;;;;11.35;9.43;;;;;;;21.67;51.21;94635.34;827547;71;33227;-77
2021/08/22 23:46:25;;;;;;;9.68;8.88;;;;;;;21.58;52.10;94617.46;826107;71;29814;-76
